Terminal Aerodrome Forecast
Issued by NWS

Home | Current Version | Previous Version | Text Only | Print | Product List | Glossary On
Versions: 1 2 3 4 5 6 7 8 9 10 11 12 13 14 15
445
FTUS46 KSGX 261736
TAFONT
TAF
KONT 261736Z 2618/2724 VRB06KT P6SM SCT180 BKN250
     FM262000 25012G20KT P6SM SCT250
     FM270300 25006KT P6SM SCT250
     FM271900 25012G20KT P6SM SCT250=

USA.gov is the U.S. government's official web portal to all federal, state and local government web resources and services.